Nearby METAR Reports

 

KSJC - San Jose, California, USA
Distance from station: NE 14km
Updated: 2019-06-17 09:53
Partly cloudy
Partly cloudy
 Wind from SE
Wind: SE 22 km/h
Temperature: 14°C
Dew Point: 11°C
Humidity: 82%
Barometer: 1010.8 hPa
Clouds: Partly cloudy
Visibility: 16 km
Cloud details: Few Clouds 122 m
Few Clouds 366 m
Partly cloudy 3658 m
2019/06/17 14:53 KSJC 171453Z 13012KT 10SM FEW004 FEW012 SCT120 14/11 A2985 RMK AO2 SLP108 T01390111 51009
KNUQ - Moffett Nas/Mtn, California, USA
Distance from station: N 14km
Updated: 2019-06-17 10:13
Clear
Clear
 Wind from varies
Wind: varies 7 km/h
Temperature: 16°C
Dew Point: 11°C
Humidity: 72%
Barometer: 1011.2 hPa
Clouds: Clear
Visibility: 16 km
2019/06/17 15:13 KNUQ 171513Z VRB04KT 10SM CLR 16/11 A2986 RMK AO2 T01610111
 
KPAO - Palo Alto, California, USA
Distance from station: NNW 23km
Updated: 2019-06-17 09:57
Mostly cloudy
Mostly cloudy
 Wind from SE
Wind: SE 7 km/h
Temperature: 15°C
Dew Point: 12°C
Humidity: 82%
Barometer: 1011.2 hPa
Clouds: Mostly cloudy
Visibility: 16 km
Cloud details: Mostly cloudy 366 m
2019/06/17 14:57 KPAO 171457Z 13004KT 10SM BKN012 15/12 A2986
KRHV - San Jose/Reid, California, USA
Distance from station: ENE 19km
Updated: 2019-06-17 10:10
Mostly cloudy
Mostly cloudy
 Wind from S
Wind: S 11 km/h
Temperature: 14°C
Dew Point: 11°C
Humidity: 82%
Barometer: 1011.2 hPa
Clouds: Mostly cloudy
Visibility: 16 km
Cloud details: Mostly cloudy 427 m
2019/06/17 15:10 KRHV 171510Z 17006KT 10SM BKN014 14/11 A2986
 
KOAK - Oakland, California, USA
Distance from station: NNW 50km
Updated: 2019-06-17 09:53
Overcast
Overcast
 Wind from SE
Wind: SE 9 km/h
Temperature: 16°C
Dew Point: 12°C
Humidity: 77%
Barometer: 1010.8 hPa
Clouds: Overcast
Visibility: 16 km
Cloud details: Overcast 335 m
2019/06/17 14:53 KOAK 171453Z 14005KT 10SM OVC011 16/12 A2985 RMK AO2 SLP109 T01610122 53009
KSQL - San Carlos Airpo, California, USA
Distance from station: NW 34km
Updated: 2019-06-17 09:55
Partly cloudy
Partly cloudy
 Wind from calm
Wind: Calm
Temperature: 15°C
Dew Point: 12°C
Humidity: 82%
Barometer: 1011.2 hPa
Clouds: Partly cloudy
Visibility: 16 km
Cloud details: Partly cloudy 396 m
2019/06/17 14:55 KSQL 171455Z 00000KT 10SM SCT013 15/12 A2986
 
KSFO - San Francisco, California, USA
Distance from station: NW 49km
Updated: 2019-06-17 09:56
Mostly cloudy
Mostly cloudy
 Wind from SSE
Wind: SSE 11 km/h
Temperature: 14°C
Dew Point: 11°C
Humidity: 82%
Barometer: 1010.8 hPa
Clouds: Mostly cloudy
Visibility: 14 km
Cloud details: Few Clouds 244 m
Mostly cloudy 335 m
2019/06/17 14:56 KSFO 171456Z 16006KT 9SM FEW008 BKN011 14/11 A2985 RMK AO2 SLP106 T01440106 51010
KE16 - San Martin, California, USA
Distance from station: ESE 43km
Updated: 2019-05-30 14:30
NOT Current

 Wind from SE
Wind: SE 9 km/h
Temperature: 18°C
Dew Point: 11°C
Humidity: 64%
Barometer: 1014.6 hPa
2019/05/30 19:30 KE16 301930Z AUTO 13005KT 18/11 A2996 RMK AO2 PWINO PNO
 
KWVI - Watsonville, California, USA
Distance from station: SSE 44km
Updated: 2019-06-17 09:53
Mist, Overcast
Mist, Overcast
 Wind from calm
Wind: Calm
Barometer: 1012.2 hPa
Summary: Mist
Clouds: Overcast
Visibility: 5 km
Cloud details: Overcast 183 m
2019/06/17 14:53 KWVI 171453Z AUTO 00000KT 3SM BR OVC006 A2989 RMK AO2 SLPNO 53010 $
KHAF - Half Moon Bay, California, USA
Distance from station: WNW 50km
Updated: 2019-06-17 10:00
Mist, Overcast
Mist, Overcast
 Wind from SSE
Wind: SSE 20 km/h
Temperature: 12°C
Dew Point: 11°C
Humidity: 94%
Barometer: 1011.5 hPa
Summary: Mist
Clouds: Overcast
Visibility: 10 km
Cloud details: Overcast 183 m
2019/06/17 15:00 KHAF 171500Z AUTO 16011KT 6SM BR OVC006 12/11 A2987 RMK AO2
 
KHWD - Hayward, California, USA
Distance from station: N 44km
Updated: 2019-06-17 09:54
Overcast
Overcast
 Wind from SE
Wind: SE 15 km/h
Temperature: 15°C
Dew Point: 11°C
Humidity: 77%
Barometer: 1010.8 hPa
Clouds: Overcast
Visibility: 16 km
Cloud details: Overcast 335 m
2019/06/17 14:54 KHWD 171454Z 13008KT 10SM OVC011 15/11 A2985 RMK AO2 SLP118 T01500111 52011
KLVK - Livermore, California, USA
Distance from station: NNE 51km
Updated: 2019-06-17 09:53
Mostly cloudy
Mostly cloudy
 Wind from S
Wind: S 9 km/h
Temperature: 14°C
Dew Point: 12°C
Humidity: 88%
Barometer: 1010.5 hPa
Clouds: Mostly cloudy
Visibility: 11 km
Cloud details: Mostly cloudy 305 m
2019/06/17 14:53 KLVK 171453Z 18005KT 7SM BKN010 14/12 A2984 RMK AO2 SLP102 T01440117 53009